Terminal Aerodrome Forecast
Issued by NWS Grand Rapids, MI

Home | Current Version | Previous Version | Text Only | Print | Product List | Glossary On
Versions: 1 2 3 4 5 6 7 8 9 10 11 12 13 14 15 16 17
000
FTUS43 KGRR 232300 RRA
TAFGRR
TAF
KGRR 232350Z 2400/2424 27008KT P6SM BKN150
     FM240300 08004KT P6SM OVC120
     FM241100 12009KT P6SM VCSH OVC050
     FM241600 13013G23KT P6SM BKN050=

USA.gov is the U.S. government's official web portal to all federal, state and local government web resources and services.